createdAt,value
2023-05-21T00:00:04.466Z,22.8
2023-05-21T00:01:43.204Z,22.8
2023-05-21T00:03:21.946Z,22.8
2023-05-21T00:05:00.675Z,22.8
2023-05-21T00:06:40.432Z,22.8
2023-05-21T00:09:56.378Z,22.8
2023-05-21T00:11:03.115Z,22.8
2023-05-21T00:12:09.883Z,22.8
2023-05-21T00:13:16.674Z,22.8
2023-05-21T00:14:23.444Z,22.8
2023-05-21T00:15:30.225Z,22.8
2023-05-21T00:16:36.997Z,22.8
2023-05-21T00:17:43.776Z,22.8
2023-05-21T00:18:50.550Z,22.8
2023-05-21T00:19:57.327Z,22.8
2023-05-21T00:21:04.106Z,22.8
2023-05-21T00:22:10.875Z,22.8
2023-05-21T00:23:17.642Z,22.8
2023-05-21T00:24:24.430Z,22.8
2023-05-21T00:25:31.213Z,22.8
2023-05-21T00:26:37.965Z,22.8
2023-05-21T00:27:44.755Z,22.8
2023-05-21T00:28:51.527Z,22.8
2023-05-21T00:29:58.307Z,22.8
2023-05-21T00:32:11.853Z,22.8
2023-05-21T00:33:18.637Z,22.8
2023-05-21T00:34:25.414Z,22.8
2023-05-21T00:35:32.192Z,22.8
2023-05-21T00:36:38.966Z,22.8
2023-05-21T00:38:51.188Z,22.8
2023-05-21T00:39:58.426Z,22.8
2023-05-21T00:41:05.686Z,22.8
2023-05-21T00:42:44.421Z,22.7
2023-05-21T00:44:23.158Z,22.8
2023-05-21T00:46:01.887Z,22.8
2023-05-21T00:47:40.619Z,22.7
2023-05-21T00:49:19.357Z,22.8
2023-05-21T00:50:58.090Z,22.7
2023-05-21T00:52:36.833Z,22.7
2023-05-21T00:54:15.565Z,22.7
2023-05-21T00:55:54.308Z,22.7
2023-05-21T00:57:01.547Z,22.7
2023-05-21T01:00:02.346Z,22.7
2023-05-21T01:03:18.262Z,22.7
2023-05-21T01:04:25.038Z,22.7
2023-05-21T01:05:31.814Z,22.7
2023-05-21T01:06:38.583Z,22.7
2023-05-21T01:07:45.376Z,22.7
2023-05-21T01:08:52.147Z,22.7
2023-05-21T01:09:58.930Z,22.7
2023-05-21T01:11:05.711Z,22.7
2023-05-21T01:12:12.491Z,22.7
2023-05-21T01:13:19.273Z,22.7
2023-05-21T01:14:26.035Z,22.7
2023-05-21T01:15:32.817Z,22.7
2023-05-21T01:16:39.602Z,22.7
2023-05-21T01:17:46.370Z,22.7
2023-05-21T01:18:53.161Z,22.7
2023-05-21T01:19:59.940Z,22.7
2023-05-21T01:21:06.719Z,22.7
2023-05-21T01:22:13.504Z,22.7
2023-05-21T01:23:20.269Z,22.7
2023-05-21T01:24:27.042Z,22.7
2023-05-21T01:25:33.837Z,22.7
2023-05-21T01:26:40.612Z,22.7
2023-05-21T01:27:47.373Z,22.7
2023-05-21T01:28:54.167Z,22.7
2023-05-21T01:30:00.931Z,22.7
2023-05-21T01:31:34.277Z,22.7
2023-05-21T01:32:41.531Z,22.7
2023-05-21T01:34:20.280Z,22.6
2023-05-21T01:35:59.012Z,22.7
2023-05-21T01:37:37.766Z,22.7
2023-05-21T01:39:16.500Z,22.7
2023-05-21T01:40:55.231Z,22.7
2023-05-21T01:42:33.963Z,22.6
2023-05-21T01:44:12.698Z,22.6
2023-05-21T01:45:51.434Z,22.6
2023-05-21T01:47:30.163Z,22.6
2023-05-21T01:48:37.417Z,22.6
2023-05-21T01:49:44.682Z,22.6
2023-05-21T01:53:52.708Z,22.6
2023-05-21T01:57:08.629Z,22.6
2023-05-21T01:58:15.413Z,22.6
2023-05-21T01:59:22.186Z,22.6
2023-05-21T02:00:28.959Z,22.6
2023-05-21T02:01:35.736Z,22.6
2023-05-21T02:02:42.508Z,22.6
2023-05-21T02:03:49.300Z,22.6
2023-05-21T02:04:56.067Z,22.6
2023-05-21T02:06:02.857Z,22.6
2023-05-21T02:07:09.614Z,22.6
2023-05-21T02:08:16.400Z,22.6
2023-05-21T02:09:23.178Z,22.6
2023-05-21T02:10:29.951Z,22.6
2023-05-21T02:11:36.726Z,22.6
2023-05-21T02:12:43.506Z,22.6
2023-05-21T02:13:50.286Z,22.6
2023-05-21T02:14:57.055Z,22.6
2023-05-21T02:16:03.829Z,22.6
2023-05-21T02:17:10.605Z,22.6
2023-05-21T02:18:17.389Z,22.6
2023-05-21T02:19:24.156Z,22.6
2023-05-21T02:20:30.953Z,22.6
2023-05-21T02:21:37.718Z,22.6
2023-05-21T02:22:44.498Z,22.6
2023-05-21T02:23:51.275Z,22.6
2023-05-21T02:25:25.080Z,22.6
2023-05-21T02:27:03.827Z,22.6
2023-05-21T02:28:42.566Z,22.6
2023-05-21T02:30:21.303Z,22.6
2023-05-21T02:32:00.037Z,22.6
2023-05-21T02:33:07.291Z,22.6
2023-05-21T02:34:14.543Z,22.6
2023-05-21T02:35:53.283Z,22.6
2023-05-21T02:37:32.014Z,22.6
2023-05-21T02:39:10.759Z,22.6
2023-05-21T02:40:49.487Z,22.6
2023-05-21T02:42:28.231Z,22.6
2023-05-21T02:44:06.978Z,22.6
2023-05-21T02:48:14.996Z,22.6
2023-05-21T02:49:33.813Z,22.6
2023-05-21T02:51:30.906Z,22.6
2023-05-21T02:52:37.678Z,22.6
2023-05-21T02:53:44.462Z,22.5
2023-05-21T02:54:51.232Z,22.5
2023-05-21T02:55:58.017Z,22.6
2023-05-21T02:57:04.783Z,22.5
2023-05-21T02:58:11.558Z,22.6
2023-05-21T02:59:18.339Z,22.5
2023-05-21T03:00:25.114Z,22.5
2023-05-21T03:01:31.877Z,22.5
2023-05-21T03:02:38.656Z,22.5
2023-05-21T03:03:45.446Z,22.5
2023-05-21T03:04:52.219Z,22.5
2023-05-21T03:05:58.989Z,22.5
2023-05-21T03:07:05.773Z,22.5
2023-05-21T03:08:12.600Z,22.5
2023-05-21T03:09:19.312Z,22.5
2023-05-21T03:10:26.099Z,22.5
2023-05-21T03:11:32.882Z,22.5
2023-05-21T03:12:39.647Z,22.5
2023-05-21T03:13:46.448Z,22.5
2023-05-21T03:14:53.208Z,22.5
2023-05-21T03:15:59.987Z,22.5
2023-05-21T03:17:06.767Z,22.5
2023-05-21T03:19:18.984Z,22.5
2023-05-21T03:20:57.723Z,22.5
2023-05-21T03:22:36.457Z,22.5
2023-05-21T03:24:13.996Z,22.5
2023-05-21T03:25:21.249Z,22.5
2023-05-21T03:26:59.989Z,22.5
2023-05-21T03:28:38.727Z,22.5
2023-05-21T03:30:17.460Z,22.5
2023-05-21T03:31:56.206Z,22.5
2023-05-21T03:33:34.934Z,22.5
2023-05-21T03:35:13.678Z,22.5
2023-05-21T03:36:52.412Z,22.5
2023-05-21T03:38:31.170Z,22.5
2023-05-21T03:40:42.012Z,22.5
2023-05-21T03:42:37.454Z,22.5
2023-05-21T03:43:44.005Z,22.5
2023-05-21T03:44:50.528Z,22.5
2023-05-21T03:45:57.076Z,22.5
2023-05-21T03:47:03.609Z,22.5
2023-05-21T03:48:10.135Z,22.5
2023-05-21T03:49:16.673Z,22.5
2023-05-21T03:50:23.213Z,22.5
2023-05-21T03:51:29.757Z,22.5
2023-05-21T03:52:36.279Z,22.5
2023-05-21T03:53:42.826Z,22.5
2023-05-21T03:54:49.360Z,22.5
2023-05-21T03:55:55.899Z,22.5
2023-05-21T03:57:02.439Z,22.5
2023-05-21T03:58:08.976Z,22.5
2023-05-21T03:59:15.514Z,22.5
2023-05-21T04:00:22.039Z,22.5
2023-05-21T04:01:28.581Z,22.5
2023-05-21T04:02:35.116Z,22.4
2023-05-21T04:03:41.655Z,22.5
2023-05-21T04:04:48.195Z,22.5
2023-05-21T04:05:54.746Z,22.5
2023-05-21T04:07:01.269Z,22.5
2023-05-21T04:08:07.803Z,22.5
2023-05-21T04:09:14.356Z,22.5
2023-05-21T04:10:21.068Z,22.5
2023-05-21T04:11:27.841Z,22.5
2023-05-21T04:12:34.626Z,22.4
2023-05-21T04:13:41.398Z,22.5
2023-05-21T04:14:48.177Z,22.4
2023-05-21T04:15:54.960Z,22.5
2023-05-21T04:17:01.740Z,22.5
2023-05-21T04:18:08.504Z,22.5
2023-05-21T04:19:15.289Z,22.5
2023-05-21T04:20:22.066Z,22.5
2023-05-21T04:21:28.840Z,22.5
2023-05-21T04:22:35.610Z,22.5
2023-05-21T04:23:42.394Z,22.5
2023-05-21T04:26:22.694Z,22.5
2023-05-21T04:28:01.438Z,22.5
2023-05-21T04:29:40.178Z,22.5
2023-05-21T04:31:18.912Z,22.4
2023-05-21T04:32:26.175Z,22.5
2023-05-21T04:33:33.425Z,22.5
2023-05-21T04:35:12.159Z,22.5
2023-05-21T04:36:50.897Z,22.5
2023-05-21T04:38:29.635Z,22.5
2023-05-21T04:40:08.374Z,22.5
2023-05-21T04:41:47.110Z,22.5
2023-05-21T04:43:25.857Z,22.5
2023-05-21T04:45:04.589Z,22.5
2023-05-21T04:48:54.197Z,22.5
2023-05-21T04:50:01.253Z,22.5
2023-05-21T04:51:07.272Z,22.5
2023-05-21T04:52:14.052Z,22.5
2023-05-21T04:53:20.810Z,22.5
2023-05-21T04:54:27.595Z,22.5
2023-05-21T04:55:34.380Z,22.5
2023-05-21T04:56:41.148Z,22.5
2023-05-21T04:57:47.930Z,22.5
2023-05-21T04:58:54.708Z,22.5
2023-05-21T05:00:01.582Z,22.5
2023-05-21T05:01:08.275Z,22.5
2023-05-21T05:02:15.053Z,22.5
2023-05-21T05:03:21.817Z,22.5
2023-05-21T05:04:28.603Z,22.5
2023-05-21T05:05:35.378Z,22.5
2023-05-21T05:06:42.159Z,22.5
2023-05-21T05:07:48.943Z,22.5
2023-05-21T05:08:55.715Z,22.5
2023-05-21T05:10:02.495Z,22.5
2023-05-21T05:11:09.275Z,22.5
2023-05-21T05:12:16.065Z,22.5
2023-05-21T05:13:22.834Z,22.5
2023-05-21T05:14:29.612Z,22.5
2023-05-21T05:15:36.386Z,22.5
2023-05-21T05:16:43.161Z,22.5
2023-05-21T05:17:49.937Z,22.5
2023-05-21T05:20:02.161Z,22.5
2023-05-21T05:21:40.899Z,22.5
2023-05-21T05:22:48.151Z,22.5
2023-05-21T05:23:55.420Z,22.5
2023-05-21T05:25:34.135Z,22.5
2023-05-21T05:27:12.877Z,22.5
2023-05-21T05:28:51.616Z,22.5
2023-05-21T05:30:30.344Z,22.5
2023-05-21T05:32:09.077Z,22.6
2023-05-21T05:33:47.815Z,22.6
2023-05-21T05:35:26.550Z,22.6
2023-05-21T05:37:05.285Z,22.5
2023-05-21T05:38:44.015Z,22.6
2023-05-21T05:40:23.772Z,22.6
2023-05-21T05:43:39.690Z,22.6
2023-05-21T05:44:46.458Z,22.5
2023-05-21T05:45:53.235Z,22.6
2023-05-21T05:47:00.020Z,22.6
2023-05-21T05:48:06.792Z,22.6
2023-05-21T05:49:13.588Z,22.6
2023-05-21T05:50:20.349Z,22.6
2023-05-21T05:51:27.130Z,22.6
2023-05-21T05:52:33.905Z,22.6
2023-05-21T05:53:40.690Z,22.6
2023-05-21T05:54:47.471Z,22.6
2023-05-21T05:55:54.236Z,22.6
2023-05-21T05:57:01.016Z,22.6
2023-05-21T05:58:07.797Z,22.6
2023-05-21T05:59:14.573Z,22.6
2023-05-21T06:00:21.366Z,22.6
2023-05-21T06:01:28.127Z,22.6
2023-05-21T06:02:34.921Z,22.6
2023-05-21T06:03:41.689Z,22.6
2023-05-21T06:04:48.468Z,22.6
2023-05-21T06:05:55.284Z,22.6
2023-05-21T06:07:02.018Z,22.6
2023-05-21T06:08:08.799Z,22.6
2023-05-21T06:09:15.579Z,22.6
2023-05-21T06:10:22.353Z,22.6
2023-05-21T06:12:34.574Z,22.6
2023-05-21T06:13:41.827Z,22.6
2023-05-21T06:14:49.094Z,22.6
2023-05-21T06:16:27.828Z,22.6
2023-05-21T06:18:06.573Z,22.6
2023-05-21T06:19:45.294Z,22.6
2023-05-21T06:21:24.035Z,22.6
2023-05-21T06:23:02.771Z,22.6
2023-05-21T06:24:41.511Z,22.6
2023-05-21T06:26:20.244Z,22.7
2023-05-21T06:27:58.981Z,22.7
2023-05-21T06:29:37.722Z,22.7
2023-05-21T06:30:44.976Z,22.7
2023-05-21T06:33:45.763Z,22.7
2023-05-21T06:37:01.716Z,22.7
2023-05-21T06:38:08.468Z,22.7
2023-05-21T06:39:15.250Z,22.7
2023-05-21T06:40:22.029Z,22.7
2023-05-21T06:41:28.805Z,22.7
2023-05-21T06:42:35.583Z,22.7
2023-05-21T06:43:42.374Z,22.7
2023-05-21T06:44:49.141Z,22.7
2023-05-21T06:45:55.923Z,22.7
2023-05-21T06:47:02.698Z,22.7
2023-05-21T06:48:09.473Z,22.7
2023-05-21T06:49:16.266Z,22.7
2023-05-21T06:50:23.056Z,22.7
2023-05-21T06:51:29.828Z,22.7
2023-05-21T06:52:36.603Z,22.7
2023-05-21T06:53:43.380Z,22.7
2023-05-21T06:54:50.160Z,22.7
2023-05-21T06:55:56.939Z,22.7
2023-05-21T06:57:03.722Z,22.7
2023-05-21T06:58:10.505Z,22.8
2023-05-21T06:59:17.275Z,22.8
2023-05-21T07:00:24.060Z,22.8
2023-05-21T07:01:30.828Z,22.8
2023-05-21T07:02:37.616Z,22.7
2023-05-21T07:03:44.391Z,22.8
2023-05-21T07:05:17.724Z,22.8
2023-05-21T07:06:24.968Z,22.8
2023-05-21T07:08:03.715Z,22.8
2023-05-21T07:09:42.446Z,22.8
2023-05-21T07:11:21.182Z,22.8
2023-05-21T07:12:59.928Z,22.8
2023-05-21T07:14:38.654Z,22.8
2023-05-21T07:16:17.392Z,22.8
2023-05-21T07:17:56.142Z,22.8
2023-05-21T07:19:34.885Z,22.8
2023-05-21T07:21:13.614Z,22.8
2023-05-21T07:22:20.858Z,22.9
2023-05-21T07:23:28.110Z,22.9
2023-05-21T07:27:36.151Z,22.9
2023-05-21T07:30:52.071Z,22.9
2023-05-21T07:31:58.841Z,22.9
2023-05-21T07:33:05.617Z,22.9
2023-05-21T07:34:12.406Z,22.9
2023-05-21T07:35:19.180Z,22.9
2023-05-21T07:36:25.958Z,22.9
2023-05-21T07:37:32.732Z,22.9
2023-05-21T07:38:39.516Z,22.9
2023-05-21T07:39:46.285Z,22.9
2023-05-21T07:40:53.075Z,22.9
2023-05-21T07:41:59.857Z,22.9
2023-05-21T07:43:06.640Z,22.9
2023-05-21T07:44:13.386Z,23
2023-05-21T07:45:20.165Z,23
2023-05-21T07:46:26.949Z,23
2023-05-21T07:47:33.722Z,23
2023-05-21T07:48:40.488Z,23
2023-05-21T07:49:47.258Z,23
2023-05-21T07:50:54.024Z,23
2023-05-21T07:52:00.803Z,23
2023-05-21T07:53:07.569Z,23
2023-05-21T07:54:14.347Z,23
2023-05-21T07:55:21.115Z,23
2023-05-21T07:56:27.885Z,23
2023-05-21T07:57:34.651Z,23
2023-05-21T07:59:07.227Z,23
2023-05-21T08:00:45.953Z,23
2023-05-21T08:02:24.685Z,23
2023-05-21T08:04:03.423Z,23.1
2023-05-21T08:05:42.164Z,23.1
2023-05-21T08:06:49.412Z,23.1
2023-05-21T08:07:56.697Z,23.1
2023-05-21T08:09:35.537Z,23.1
2023-05-21T08:11:14.147Z,23.1
2023-05-21T08:12:52.915Z,23.1
2023-05-21T08:14:31.643Z,23.1
2023-05-21T08:16:10.380Z,23.1
2023-05-21T08:17:49.104Z,23.2
2023-05-21T08:21:57.140Z,23.2
2023-05-21T08:23:15.961Z,23.2
2023-05-21T08:25:13.042Z,23.2
2023-05-21T08:26:19.836Z,23.2
2023-05-21T08:27:26.651Z,23.2
2023-05-21T08:28:33.393Z,23.2
2023-05-21T08:29:40.159Z,23.2
2023-05-21T08:30:46.949Z,23.2
2023-05-21T08:31:53.729Z,23.2
2023-05-21T08:33:00.498Z,23.2
2023-05-21T08:34:07.273Z,23.2
2023-05-21T08:35:14.060Z,23.3
2023-05-21T08:36:20.846Z,23.3
2023-05-21T08:37:27.607Z,23.3
2023-05-21T08:38:34.374Z,23.3
2023-05-21T08:39:41.151Z,23.3
2023-05-21T08:40:47.941Z,23.3
2023-05-21T08:41:54.713Z,23.3
2023-05-21T08:43:01.518Z,23.3
2023-05-21T08:44:08.264Z,23.3
2023-05-21T08:45:15.068Z,23.3
2023-05-21T08:46:21.852Z,23.3
2023-05-21T08:47:28.614Z,23.3
2023-05-21T08:48:35.386Z,23.3
2023-05-21T08:49:42.164Z,23.3
2023-05-21T08:50:48.944Z,23.3
2023-05-21T08:53:01.157Z,23.4
2023-05-21T08:54:39.900Z,23.4
2023-05-21T08:56:18.634Z,23.4
2023-05-21T08:57:56.167Z,23.4
2023-05-21T08:59:03.438Z,23.4
2023-05-21T09:00:42.197Z,23.4
2023-05-21T09:02:20.904Z,23.4
2023-05-21T09:03:59.645Z,23.4
2023-05-21T09:05:38.389Z,23.4
2023-05-21T09:07:17.128Z,23.4
2023-05-21T09:08:55.865Z,23.4
2023-05-21T09:10:34.603Z,23.4
2023-05-21T09:12:13.342Z,23.4
2023-05-21T09:14:24.210Z,23.4
2023-05-21T09:16:19.643Z,23.4
2023-05-21T09:17:26.188Z,23.4
2023-05-21T09:18:32.722Z,23.4
2023-05-21T09:19:39.262Z,23.4
2023-05-21T09:20:45.802Z,23.5
2023-05-21T09:21:52.533Z,23.5
2023-05-21T09:22:58.969Z,23.4
2023-05-21T09:24:05.465Z,23.4
2023-05-21T09:25:12.120Z,23.5
2023-05-21T09:26:18.484Z,23.4
2023-05-21T09:27:25.095Z,23.5
2023-05-21T09:28:31.559Z,23.5
2023-05-21T09:29:38.138Z,23.5
2023-05-21T09:30:44.643Z,23.5
2023-05-21T09:31:51.176Z,23.5
2023-05-21T09:32:57.702Z,23.5
2023-05-21T09:34:04.284Z,23.5
2023-05-21T09:35:10.866Z,23.4
2023-05-21T09:36:17.463Z,23.5
2023-05-21T09:37:23.918Z,23.5
2023-05-21T09:38:30.395Z,23.5
2023-05-21T09:39:36.944Z,23.4
2023-05-21T09:40:43.488Z,23.5
2023-05-21T09:41:50.003Z,23.4
2023-05-21T09:42:56.540Z,23.5
2023-05-21T09:44:03.266Z,23.5
2023-05-21T09:45:10.037Z,23.5
2023-05-21T09:46:16.813Z,23.5
2023-05-21T09:47:23.600Z,23.5
2023-05-21T09:48:30.364Z,23.5
2023-05-21T09:49:37.158Z,23.5
2023-05-21T09:50:43.922Z,23.5
2023-05-21T09:51:50.698Z,23.5
2023-05-21T09:52:57.523Z,23.5
2023-05-21T09:54:04.259Z,23.5
2023-05-21T09:55:11.054Z,23.5
2023-05-21T09:56:17.817Z,23.5
2023-05-21T09:57:24.633Z,23.5
2023-05-21T10:00:03.196Z,23.5
2023-05-21T10:01:41.930Z,23.6
2023-05-21T10:03:20.646Z,23.6
2023-05-21T10:04:59.378Z,23.6
2023-05-21T10:06:06.624Z,23.6
2023-05-21T10:07:13.890Z,23.6
2023-05-21T10:08:52.631Z,23.6
2023-05-21T10:10:31.413Z,23.6
2023-05-21T10:12:10.104Z,23.6
2023-05-21T10:13:48.835Z,23.6
2023-05-21T10:15:27.632Z,23.6
2023-05-21T10:17:06.311Z,23.6
2023-05-21T10:18:45.062Z,23.6
2023-05-21T10:22:34.669Z,23.6
2023-05-21T10:23:41.710Z,23.6
2023-05-21T10:24:47.679Z,23.6
2023-05-21T10:25:54.462Z,23.6
2023-05-21T10:27:01.235Z,23.6
2023-05-21T10:28:08.018Z,23.6
2023-05-21T10:29:14.790Z,23.6
2023-05-21T10:30:21.565Z,23.6
2023-05-21T10:31:28.488Z,23.7
2023-05-21T10:32:35.125Z,23.7
2023-05-21T10:33:42.018Z,23.7
2023-05-21T10:34:48.709Z,23.7
2023-05-21T10:35:55.463Z,23.7
2023-05-21T10:37:02.372Z,23.7
2023-05-21T10:38:09.157Z,23.7
2023-05-21T10:39:15.965Z,23.7
2023-05-21T10:40:22.636Z,23.7
2023-05-21T10:41:29.438Z,23.7
2023-05-21T10:42:36.197Z,23.7
2023-05-21T10:43:42.944Z,23.7
2023-05-21T10:44:49.698Z,23.7
2023-05-21T10:45:56.482Z,23.7
2023-05-21T10:47:03.265Z,23.7
2023-05-21T10:48:10.061Z,23.8
2023-05-21T10:49:16.807Z,23.8
2023-05-21T10:50:23.583Z,23.8
2023-05-21T10:51:30.485Z,23.8
2023-05-21T10:52:37.144Z,23.8
2023-05-21T10:53:43.966Z,23.7
2023-05-21T10:54:50.697Z,23.8
2023-05-21T10:55:57.479Z,23.8
2023-05-21T10:57:04.243Z,23.8
2023-05-21T10:58:11.055Z,23.8
2023-05-21T10:59:17.837Z,23.8
2023-05-21T11:00:24.584Z,23.8
2023-05-21T11:01:31.395Z,23.8
2023-05-21T11:02:38.138Z,23.8
2023-05-21T11:03:44.949Z,23.8
2023-05-21T11:04:51.723Z,23.8
2023-05-21T11:06:24.574Z,23.8
2023-05-21T11:08:03.316Z,23.8
2023-05-21T11:09:42.049Z,23.9
2023-05-21T11:11:20.773Z,23.9
2023-05-21T11:12:59.510Z,23.9
2023-05-21T11:14:06.782Z,23.9
2023-05-21T11:15:14.024Z,23.9
2023-05-21T11:16:52.762Z,23.9
2023-05-21T11:18:31.505Z,23.9
2023-05-21T11:20:10.250Z,23.9
2023-05-21T11:21:49.000Z,23.9
2023-05-21T11:23:27.712Z,23.9
2023-05-21T11:25:06.453Z,23.9
2023-05-21T11:29:14.488Z,23.9
2023-05-21T11:30:33.276Z,24
2023-05-21T11:32:30.388Z,24
2023-05-21T11:33:37.183Z,24
2023-05-21T11:34:43.932Z,24
2023-05-21T11:35:50.697Z,24
2023-05-21T11:36:57.483Z,24
2023-05-21T11:38:04.239Z,24
2023-05-21T11:39:11.017Z,24
2023-05-21T11:40:17.793Z,24
2023-05-21T11:41:24.557Z,24
2023-05-21T11:42:31.333Z,24
2023-05-21T11:43:38.105Z,24
2023-05-21T11:44:44.895Z,24
2023-05-21T11:45:51.643Z,24
2023-05-21T11:46:58.413Z,24
2023-05-21T11:48:05.194Z,24
2023-05-21T11:49:11.999Z,24
2023-05-21T11:50:18.735Z,24
2023-05-21T11:51:25.503Z,24
2023-05-21T11:52:32.267Z,24
2023-05-21T11:53:39.063Z,24
2023-05-21T11:54:45.828Z,24
2023-05-21T11:55:52.600Z,24
2023-05-21T11:56:59.363Z,24.1
2023-05-21T11:58:06.152Z,24.1
2023-05-21T12:00:18.386Z,24.1
2023-05-21T12:01:57.123Z,24.1
2023-05-21T12:03:35.876Z,24.1
2023-05-21T12:05:13.413Z,24.1
2023-05-21T12:06:20.666Z,24.1
2023-05-21T12:07:59.404Z,24.1
2023-05-21T12:09:38.153Z,24.1
2023-05-21T12:11:16.888Z,24.1
2023-05-21T12:12:55.642Z,24.1
2023-05-21T12:14:34.369Z,24.1
2023-05-21T12:16:13.127Z,24.1
2023-05-21T12:17:51.863Z,24.1
2023-05-21T12:19:30.600Z,24.1
2023-05-21T12:21:41.403Z,24.1
2023-05-21T12:23:37.128Z,24.2
2023-05-21T12:24:43.916Z,24.2
2023-05-21T12:25:50.688Z,24.2
2023-05-21T12:26:57.474Z,24.2
2023-05-21T12:28:04.248Z,24.2
2023-05-21T12:29:11.022Z,24.2
2023-05-21T12:30:17.801Z,24.2
2023-05-21T12:31:24.648Z,24.2
2023-05-21T12:32:31.368Z,24.2
2023-05-21T12:33:38.146Z,24.2
2023-05-21T12:34:44.923Z,24.2
2023-05-21T12:35:51.714Z,24.2
2023-05-21T12:36:58.475Z,24.2
2023-05-21T12:38:05.275Z,24.2
2023-05-21T12:39:12.031Z,24.3
2023-05-21T12:40:18.816Z,24.2
2023-05-21T12:41:25.590Z,24.3
2023-05-21T12:42:32.374Z,24.2
2023-05-21T12:43:39.145Z,24.3
2023-05-21T12:44:45.943Z,24.3
2023-05-21T12:45:52.707Z,24.3
2023-05-21T12:46:59.489Z,24.3
2023-05-21T12:48:06.263Z,24.3
2023-05-21T12:49:13.043Z,24.3
2023-05-21T12:50:19.866Z,24.3
2023-05-21T12:52:32.127Z,24.3
2023-05-21T12:54:10.788Z,24.3
2023-05-21T12:55:18.049Z,24.3
2023-05-21T12:56:25.299Z,24.3
2023-05-21T12:58:04.051Z,24.3
2023-05-21T12:59:42.772Z,24.4
2023-05-21T13:01:21.514Z,24.4
2023-05-21T13:03:00.261Z,24.4
2023-05-21T13:04:39.016Z,24.4
2023-05-21T13:06:17.748Z,24.4
2023-05-21T13:07:56.497Z,24.4
2023-05-21T13:09:35.221Z,24.4
2023-05-21T13:11:13.980Z,24.4
2023-05-21T13:12:53.750Z,24.4
2023-05-21T13:16:10.251Z,24.4
2023-05-21T13:17:57.060Z,24.4
2023-05-21T13:19:35.811Z,24.4
2023-05-21T13:21:14.559Z,24.4
2023-05-21T13:22:53.284Z,24.4
2023-05-21T13:24:32.025Z,24.4
2023-05-21T13:26:10.771Z,24.4
2023-05-21T13:27:49.506Z,24.4
2023-05-21T13:29:28.255Z,24.4
2023-05-21T13:31:07.002Z,24.4
2023-05-21T13:32:45.739Z,24.4
2023-05-21T13:34:24.480Z,24.4
2023-05-21T13:36:03.227Z,24.4
2023-05-21T13:38:17.732Z,24.5
2023-05-21T13:39:56.471Z,24.5
2023-05-21T13:41:35.228Z,24.4
2023-05-21T13:43:13.956Z,24.5
2023-05-21T13:44:52.700Z,24.5
2023-05-21T13:46:31.442Z,24.5
2023-05-21T13:48:10.177Z,24.5
2023-05-21T13:49:48.912Z,24.6
2023-05-21T13:51:27.692Z,24.7
2023-05-21T13:53:06.397Z,24.7
2023-05-21T13:54:13.601Z,24.7
2023-05-21T13:57:14.447Z,24.7
2023-05-21T14:00:30.966Z,24.7
2023-05-21T14:02:17.811Z,24.7
2023-05-21T14:03:56.547Z,24.7
2023-05-21T14:05:35.296Z,24.7
2023-05-21T14:07:14.094Z,24.7
2023-05-21T14:08:52.769Z,24.7
2023-05-21T14:10:31.575Z,24.6
2023-05-21T14:11:38.718Z,24.6
2023-05-21T14:12:45.923Z,24.6
2023-05-21T14:14:24.654Z,24.6
2023-05-21T14:16:03.400Z,24.6
2023-05-21T14:17:42.128Z,24.6
2023-05-21T14:19:20.876Z,24.5
2023-05-21T14:20:59.621Z,24.5
2023-05-21T14:22:38.357Z,24.6
2023-05-21T14:24:17.092Z,24.6
2023-05-21T14:25:55.830Z,24.5
2023-05-21T14:27:34.568Z,24.5
2023-05-21T14:28:41.836Z,24.5
2023-05-21T14:29:49.080Z,24.5
2023-05-21T14:31:27.824Z,24.5
2023-05-21T14:33:06.558Z,24.5
2023-05-21T14:34:45.318Z,24.5
2023-05-21T14:36:24.053Z,24.5
2023-05-21T14:38:02.779Z,24.5
2023-05-21T14:42:10.832Z,24.5
2023-05-21T14:45:08.915Z,24.5
2023-05-21T14:46:16.136Z,24.5
2023-05-21T14:47:54.844Z,24.5
2023-05-21T14:49:33.571Z,24.5
2023-05-21T14:51:12.317Z,24.5
2023-05-21T14:52:51.055Z,24.5
2023-05-21T14:54:29.792Z,24.5
2023-05-21T14:56:08.544Z,24.5
2023-05-21T14:57:47.275Z,24.5
2023-05-21T14:59:26.020Z,24.5
2023-05-21T15:01:04.766Z,24.5
2023-05-21T15:02:43.493Z,24.5
2023-05-21T15:03:50.697Z,24.5
2023-05-21T15:04:57.884Z,24.5
2023-05-21T15:06:36.635Z,24.5
2023-05-21T15:08:15.369Z,24.5
2023-05-21T15:09:54.119Z,24.5
2023-05-21T15:11:32.863Z,24.5
2023-05-21T15:13:11.588Z,24.5
2023-05-21T15:14:50.384Z,24.5
2023-05-21T15:16:29.334Z,24.5
2023-05-21T15:18:07.852Z,24.5
2023-05-21T15:19:46.601Z,24.5
2023-05-21T15:20:53.776Z,24.5
2023-05-21T15:22:01.098Z,24.5
2023-05-21T15:26:09.025Z,24.5
2023-05-21T15:29:25.635Z,24.5
2023-05-21T15:31:20.505Z,24.5
2023-05-21T15:32:59.276Z,24.5
2023-05-21T15:34:37.997Z,24.5
2023-05-21T15:36:16.734Z,24.5
2023-05-21T15:37:23.986Z,24.5
2023-05-21T15:38:31.238Z,24.5
2023-05-21T15:40:09.976Z,24.5
2023-05-21T15:41:48.724Z,24.5
2023-05-21T15:43:27.454Z,24.5
2023-05-21T15:45:06.210Z,24.5
2023-05-21T15:46:44.939Z,24.5
2023-05-21T15:48:23.710Z,24.5
2023-05-21T15:50:02.427Z,24.5
2023-05-21T15:51:41.156Z,24.5
2023-05-21T15:53:19.920Z,24.5
2023-05-21T15:54:27.162Z,24.5
2023-05-21T15:55:34.427Z,24.5
2023-05-21T15:57:13.160Z,24.5
2023-05-21T15:58:51.907Z,24.5
2023-05-21T16:00:30.632Z,24.5
2023-05-21T16:02:09.443Z,24.5
2023-05-21T16:03:48.124Z,24.5
2023-05-21T16:05:26.931Z,24.5
2023-05-21T16:07:05.622Z,24.5
2023-05-21T16:10:55.170Z,24.5
2023-05-21T16:12:01.810Z,24.5
2023-05-21T16:13:08.278Z,24.5
2023-05-21T16:14:14.786Z,24.5
2023-05-21T16:15:21.257Z,24.5
2023-05-21T16:16:27.740Z,24.5
2023-05-21T16:17:34.219Z,24.5
2023-05-21T16:18:40.705Z,24.5
2023-05-21T16:19:47.180Z,24.5
2023-05-21T16:20:53.666Z,24.5
2023-05-21T16:22:00.153Z,24.5
2023-05-21T16:23:06.629Z,24.5
2023-05-21T16:24:13.130Z,24.5
2023-05-21T16:25:19.572Z,24.5
2023-05-21T16:26:26.082Z,24.5
2023-05-21T16:27:32.548Z,24.5
2023-05-21T16:28:39.029Z,24.5
2023-05-21T16:29:45.524Z,24.5
2023-05-21T16:30:52.001Z,24.5
2023-05-21T16:33:04.957Z,24.5
2023-05-21T16:34:11.427Z,24.5
2023-05-21T16:35:17.937Z,24.5
2023-05-21T16:36:24.392Z,24.5
2023-05-21T16:37:30.879Z,24.5
2023-05-21T16:38:37.355Z,24.5
2023-05-21T16:39:44.073Z,24.5
2023-05-21T16:40:50.796Z,24.5
2023-05-21T16:41:57.517Z,24.5
2023-05-21T16:43:04.300Z,24.5
2023-05-21T16:44:11.097Z,24.5
2023-05-21T16:45:17.797Z,24.5
2023-05-21T16:46:24.578Z,24.5
2023-05-21T16:47:31.354Z,24.5
2023-05-21T16:48:38.136Z,24.5
2023-05-21T16:49:44.926Z,24.5
2023-05-21T16:50:51.643Z,24.5
2023-05-21T16:51:58.353Z,24.5
2023-05-21T16:53:05.077Z,24.5
2023-05-21T16:55:43.952Z,24.5
2023-05-21T16:57:22.701Z,24.5
2023-05-21T16:59:01.433Z,24.5
2023-05-21T17:00:40.182Z,24.5
2023-05-21T17:01:47.380Z,24.5
2023-05-21T17:02:54.575Z,24.5
2023-05-21T17:04:33.319Z,24.5
2023-05-21T17:06:12.051Z,24.5
2023-05-21T17:07:50.807Z,24.5
2023-05-21T17:09:29.534Z,24.5
2023-05-21T17:11:08.268Z,24.5
2023-05-21T17:12:47.037Z,24.5
2023-05-21T17:14:25.758Z,24.5
2023-05-21T17:18:15.392Z,24.5
2023-05-21T17:19:22.142Z,24.5
2023-05-21T17:20:28.886Z,24.5
2023-05-21T17:21:35.589Z,24.5
2023-05-21T17:22:42.322Z,24.5
2023-05-21T17:23:49.044Z,24.5
2023-05-21T17:24:55.757Z,24.5
2023-05-21T17:26:02.469Z,24.5
2023-05-21T17:27:09.257Z,24.5
2023-05-21T17:28:15.965Z,24.5
2023-05-21T17:29:22.699Z,24.5
2023-05-21T17:30:29.401Z,24.5
2023-05-21T17:31:36.139Z,24.5
2023-05-21T17:32:42.853Z,24.5
2023-05-21T17:33:49.579Z,24.5
2023-05-21T17:34:56.288Z,24.5
2023-05-21T17:36:03.090Z,24.5
2023-05-21T17:37:09.863Z,24.5
2023-05-21T17:38:16.640Z,24.5
2023-05-21T17:39:23.409Z,24.5
2023-05-21T17:40:30.192Z,24.5
2023-05-21T17:41:36.965Z,24.5
2023-05-21T17:42:43.739Z,24.5
2023-05-21T17:43:50.518Z,24.5
2023-05-21T17:44:57.244Z,24.5
2023-05-21T17:46:03.981Z,24.5
2023-05-21T17:48:16.183Z,24.5
2023-05-21T17:49:54.927Z,24.5
2023-05-21T17:51:08.400Z,24.5
2023-05-21T17:52:15.604Z,24.5
2023-05-21T17:53:54.374Z,24.5
2023-05-21T17:55:33.082Z,24.5
2023-05-21T17:57:11.811Z,24.5
2023-05-21T17:58:50.562Z,24.6
2023-05-21T18:00:29.285Z,24.6
2023-05-21T18:02:08.026Z,24.6
2023-05-21T18:03:46.754Z,24.6
2023-05-21T18:05:25.512Z,24.6
2023-05-21T18:07:04.253Z,24.7
2023-05-21T18:08:44.014Z,24.7
2023-05-21T18:11:59.937Z,24.7
2023-05-21T18:13:06.679Z,24.7
2023-05-21T18:14:13.544Z,24.7
2023-05-21T18:15:20.136Z,24.8
2023-05-21T18:16:26.818Z,24.8
2023-05-21T18:17:33.568Z,24.8
2023-05-21T18:18:40.260Z,24.8
2023-05-21T18:19:46.986Z,24.8
2023-05-21T18:20:53.702Z,24.8
2023-05-21T18:22:00.495Z,24.8
2023-05-21T18:23:07.205Z,24.9
2023-05-21T18:24:13.918Z,24.9
2023-05-21T18:25:20.643Z,24.9
2023-05-21T18:26:27.361Z,24.9
2023-05-21T18:27:34.152Z,24.9
2023-05-21T18:28:40.939Z,25
2023-05-21T18:29:47.694Z,25
2023-05-21T18:30:54.467Z,25
2023-05-21T18:32:01.240Z,25